createdAt,value
2018-12-21T00:00:45.046Z,91.10
2018-12-21T00:03:15.164Z,90.85
2018-12-21T00:05:45.373Z,90.88
2018-12-21T00:08:15.785Z,90.49
2018-12-21T00:10:46.208Z,89.54
2018-12-21T00:13:16.544Z,89.86
2018-12-21T00:15:46.994Z,89.72
2018-12-21T00:18:17.259Z,88.68
2018-12-21T00:20:47.322Z,86.56
2018-12-21T00:23:17.602Z,85.51
2018-12-21T00:25:47.773Z,86.49
2018-12-21T00:28:17.977Z,88.13
2018-12-21T00:30:46.707Z,89.68
2018-12-21T00:33:22.854Z,90.57
2018-12-21T00:35:58.652Z,90.49
2018-12-21T00:38:33.637Z,90.76
2018-12-21T00:41:09.271Z,90.83
2018-12-21T00:43:44.512Z,90.79
2018-12-21T00:46:24.418Z,91.19
2018-12-21T00:48:54.863Z,91.26
2018-12-21T00:51:30.204Z,91.02
2018-12-21T00:53:57.311Z,91.25
2018-12-21T00:56:27.394Z,89.73
2018-12-21T00:58:57.606Z,89.35
2018-12-21T01:01:29.784Z,88.72
2018-12-21T01:03:59.789Z,90.19
2018-12-21T01:06:30.050Z,89.75
2018-12-21T01:09:00.826Z,89.32
2018-12-21T01:11:31.115Z,89.30
2018-12-21T01:14:01.298Z,89.70
2018-12-21T01:16:32.136Z,90.29
2018-12-21T01:19:02.389Z,89.61
2018-12-21T01:21:38.759Z,90.10
2018-12-21T01:24:05.858Z,90.36
2018-12-21T01:26:36.215Z,90.61
2018-12-21T01:29:06.686Z,90.12
2018-12-21T01:31:37.003Z,90.46
2018-12-21T01:34:07.254Z,91.58
2018-12-21T01:36:37.507Z,91.22
2018-12-21T01:39:08.587Z,90.72
2018-12-21T01:41:38.818Z,90.27
2018-12-21T01:44:09.219Z,90.63
2018-12-21T01:46:39.249Z,90.88
2018-12-21T01:49:09.341Z,90.85
2018-12-21T01:51:46.903Z,90.28
2018-12-21T01:54:11.677Z,90.61
2018-12-21T01:56:41.894Z,91.44
2018-12-21T01:59:12.094Z,91.64
2018-12-21T02:01:42.398Z,91.52
2018-12-21T02:04:12.483Z,91.91
2018-12-21T02:06:42.574Z,92.30
2018-12-21T02:09:12.796Z,92.66
2018-12-21T02:11:42.828Z,92.81
2018-12-21T02:14:13.059Z,92.94
2018-12-21T02:16:44.222Z,92.84
2018-12-21T02:19:14.583Z,93.08
2018-12-21T02:21:44.521Z,93.39
2018-12-21T02:24:14.703Z,94.34
2018-12-21T02:26:45.161Z,94.27
2018-12-21T02:29:15.838Z,93.60
2018-12-21T02:31:46.839Z,93.65
2018-12-21T02:34:17.083Z,93.70
2018-12-21T02:36:47.364Z,93.74
2018-12-21T02:39:18.141Z,93.01
2018-12-21T02:41:48.553Z,92.49
2018-12-21T02:44:19.170Z,92.31
2018-12-21T02:46:49.241Z,91.73
2018-12-21T02:49:19.272Z,91.46
2018-12-21T02:51:49.556Z,91.31
2018-12-21T02:54:19.854Z,91.62
2018-12-21T02:56:49.937Z,91.78
2018-12-21T02:59:20.016Z,91.93
2018-12-21T03:01:51.409Z,92.39
2018-12-21T03:04:21.415Z,91.87
2018-12-21T03:06:51.661Z,92.01
2018-12-21T03:09:21.806Z,91.95
2018-12-21T03:11:51.826Z,91.72
2018-12-21T03:14:22.990Z,92.31
2018-12-21T03:16:53.209Z,91.97
2018-12-21T03:19:23.575Z,93.18
2018-12-21T03:21:53.665Z,92.63
2018-12-21T03:24:24.466Z,92.30
2018-12-21T03:26:54.710Z,92.47
2018-12-21T03:29:25.070Z,92.92
2018-12-21T03:31:55.340Z,93.13
2018-12-21T03:34:26.473Z,93.50
2018-12-21T03:36:57.733Z,93.74
2018-12-21T03:39:28.707Z,93.19
2018-12-21T03:41:58.859Z,93.23
2018-12-21T03:44:29.329Z,94.03
2018-12-21T03:46:59.346Z,94.34
2018-12-21T03:49:30.373Z,93.82
2018-12-21T03:52:00.404Z,93.21
2018-12-21T03:54:30.525Z,92.83
2018-12-21T03:57:00.701Z,92.31
2018-12-21T03:59:30.864Z,91.77
2018-12-21T04:02:00.762Z,91.92
2018-12-21T04:04:31.184Z,91.44
2018-12-21T04:07:01.549Z,91.52
2018-12-21T04:09:32.083Z,92.60
2018-12-21T04:12:01.914Z,92.45
2018-12-21T04:14:32.136Z,92.58
2018-12-21T04:17:02.338Z,92.87
2018-12-21T04:19:32.679Z,93.23
2018-12-21T04:22:02.886Z,93.18
2018-12-21T04:24:32.999Z,92.78
2018-12-21T04:27:03.336Z,92.98
2018-12-21T04:29:34.719Z,93.64
2018-12-21T04:32:04.836Z,93.79
2018-12-21T04:34:35.867Z,93.46
2018-12-21T04:37:05.841Z,93.76
2018-12-21T04:39:35.868Z,94.18
2018-12-21T04:42:06.142Z,94.10
2018-12-21T04:44:36.253Z,93.72
2018-12-21T04:47:06.341Z,92.44
2018-12-21T04:49:36.356Z,93.06
2018-12-21T04:52:07.985Z,93.00
2018-12-21T04:54:38.094Z,92.15
2018-12-21T04:57:08.273Z,92.70
2018-12-21T04:59:38.471Z,93.46
2018-12-21T05:02:08.512Z,94.24
2018-12-21T05:04:39.675Z,94.16
2018-12-21T05:07:12.477Z,93.04
2018-12-21T05:09:42.838Z,92.52
2018-12-21T05:12:12.978Z,93.54
2018-12-21T05:14:43.388Z,93.34
2018-12-21T05:17:14.568Z,92.73
2018-12-21T05:19:44.759Z,93.48
2018-12-21T05:22:14.942Z,92.77
2018-12-21T05:24:46.058Z,93.18
2018-12-21T05:27:16.151Z,93.56
2018-12-21T05:29:46.312Z,93.81
2018-12-21T05:32:17.388Z,93.86
2018-12-21T05:34:49.864Z,95.38
2018-12-21T05:37:19.962Z,95.03
2018-12-21T05:39:49.973Z,95.26
2018-12-21T05:42:22.161Z,96.21
2018-12-21T05:44:52.531Z,96.08
2018-12-21T05:47:23.991Z,96.03
2018-12-21T05:49:55.239Z,94.47
2018-12-21T05:52:25.453Z,93.08
2018-12-21T05:54:55.592Z,93.56
2018-12-21T05:57:25.685Z,93.22
2018-12-21T05:59:55.594Z,92.94
2018-12-21T06:02:26.011Z,92.92
2018-12-21T06:04:56.091Z,93.42
2018-12-21T06:07:26.239Z,93.60
2018-12-21T06:09:56.490Z,92.68
2018-12-21T06:12:26.756Z,93.15
2018-12-21T06:14:57.070Z,93.80
2018-12-21T06:17:27.143Z,94.63
2018-12-21T06:19:58.318Z,95.09
2018-12-21T06:22:28.641Z,94.93
2018-12-21T06:24:58.839Z,94.47
2018-12-21T06:27:29.115Z,94.26
2018-12-21T06:29:59.558Z,94.75
2018-12-21T06:32:29.807Z,95.90
2018-12-21T06:34:59.889Z,94.86
2018-12-21T06:37:31.238Z,94.71
2018-12-21T06:40:01.530Z,94.18
2018-12-21T06:42:31.599Z,93.82
2018-12-21T06:45:02.957Z,93.66
2018-12-21T06:47:34.009Z,94.25
2018-12-21T06:50:04.246Z,94.65
2018-12-21T06:52:35.447Z,94.28
2018-12-21T06:55:06.199Z,94.54
2018-12-21T06:57:36.858Z,94.44
2018-12-21T07:00:08.677Z,95.09
2018-12-21T07:02:38.794Z,95.65
2018-12-21T07:05:09.073Z,95.71
2018-12-21T07:07:40.340Z,94.97
2018-12-21T07:10:12.692Z,94.09
2018-12-21T07:12:42.863Z,93.63
2018-12-21T07:15:13.367Z,95.30
2018-12-21T07:17:43.272Z,95.15
2018-12-21T07:20:13.276Z,94.79
2018-12-21T07:22:44.477Z,94.39
2018-12-21T07:25:14.915Z,94.12
2018-12-21T07:27:45.160Z,93.97
2018-12-21T07:30:15.384Z,93.87
2018-12-21T07:32:46.491Z,94.75
2018-12-21T07:35:18.185Z,92.78
2018-12-21T07:37:49.011Z,92.15
2018-12-21T07:40:19.417Z,92.08
2018-12-21T07:42:50.931Z,91.23
2018-12-21T07:45:22.693Z,90.08
2018-12-21T07:47:52.787Z,90.17
2018-12-21T07:50:22.911Z,89.44
2018-12-21T07:52:53.428Z,88.78
2018-12-21T07:55:24.018Z,88.80
2018-12-21T07:57:54.155Z,88.57
2018-12-21T08:00:24.319Z,87.83
2018-12-21T08:02:54.415Z,88.47
2018-12-21T08:05:25.275Z,87.56
2018-12-21T08:07:55.674Z,87.05
2018-12-21T08:10:26.797Z,87.03
2018-12-21T08:12:56.977Z,86.19
2018-12-21T08:15:27.236Z,87.14
2018-12-21T08:17:57.302Z,87.38
2018-12-21T08:20:27.613Z,86.02
2018-12-21T08:22:58.927Z,84.67
2018-12-21T08:25:29.318Z,86.40
2018-12-21T08:27:59.384Z,88.12
2018-12-21T08:30:31.311Z,87.83
2018-12-21T08:33:01.556Z,86.41
2018-12-21T08:35:31.610Z,85.76
2018-12-21T08:38:01.919Z,84.98
2018-12-21T08:40:32.182Z,84.00
2018-12-21T08:43:02.460Z,83.21
2018-12-21T08:45:32.633Z,81.91
2018-12-21T08:48:03.512Z,81.50
2018-12-21T08:50:33.616Z,80.73
2018-12-21T08:53:04.723Z,81.00
2018-12-21T08:55:35.659Z,80.68
2018-12-21T08:58:05.901Z,80.56
2018-12-21T09:00:37.141Z,80.12
2018-12-21T09:03:07.426Z,79.62
2018-12-21T09:05:37.903Z,79.84
2018-12-21T09:08:08.161Z,80.68
2018-12-21T09:10:38.314Z,81.76
2018-12-21T09:13:08.570Z,80.49
2018-12-21T09:15:39.118Z,80.68
2018-12-21T09:18:09.742Z,82.42
2018-12-21T09:20:40.044Z,82.01
2018-12-21T09:23:10.170Z,79.87
2018-12-21T09:25:40.297Z,80.05
2018-12-21T09:28:10.788Z,80.07
2018-12-21T09:30:41.099Z,79.29
2018-12-21T09:33:12.348Z,79.52
2018-12-21T09:35:42.852Z,79.35
2018-12-21T09:38:12.979Z,80.36
2018-12-21T09:40:44.018Z,80.38
2018-12-21T09:43:14.974Z,79.94
2018-12-21T09:45:46.238Z,79.57
2018-12-21T09:48:16.409Z,79.91
2018-12-21T09:50:46.506Z,80.92
2018-12-21T09:53:16.917Z,80.66
2018-12-21T09:55:46.900Z,81.21
2018-12-21T09:58:16.893Z,81.32
2018-12-21T10:00:46.935Z,81.32
2018-12-21T10:03:16.987Z,81.10
2018-12-21T10:05:47.099Z,81.05
2018-12-21T10:08:17.169Z,81.00
2018-12-21T10:10:47.518Z,80.88
2018-12-21T10:13:17.956Z,80.95
2018-12-21T10:15:47.827Z,81.21
2018-12-21T10:18:17.719Z,82.19
2018-12-21T10:20:48.113Z,81.25
2018-12-21T10:23:18.515Z,80.34
2018-12-21T10:25:48.550Z,80.73
2018-12-21T10:28:18.786Z,80.34
2018-12-21T10:30:48.800Z,80.47
2018-12-21T10:33:18.594Z,80.10
2018-12-21T10:35:48.505Z,80.12
2018-12-21T10:38:18.475Z,81.06
2018-12-21T10:40:48.516Z,81.18
2018-12-21T10:43:19.238Z,81.56
2018-12-21T10:45:49.411Z,81.16
2018-12-21T10:48:20.222Z,82.03
2018-12-21T10:50:54.143Z,82.63
2018-12-21T10:53:24.230Z,81.84
2018-12-21T10:55:54.404Z,82.63
2018-12-21T10:58:24.525Z,82.27
2018-12-21T11:00:55.830Z,81.89
2018-12-21T11:03:27.028Z,83.03
2018-12-21T11:05:57.126Z,81.67
2018-12-21T11:08:27.496Z,82.08
2018-12-21T11:10:57.914Z,82.64
2018-12-21T11:13:28.158Z,81.43
2018-12-21T11:15:58.531Z,81.79
2018-12-21T11:18:28.877Z,82.91
2018-12-21T11:20:59.986Z,81.42
2018-12-21T11:23:30.161Z,81.85
2018-12-21T11:26:01.292Z,82.26
2018-12-21T11:28:31.382Z,80.58
2018-12-21T11:31:02.173Z,80.84
2018-12-21T11:33:32.361Z,80.89
2018-12-21T11:36:02.746Z,81.11
2018-12-21T11:38:32.851Z,80.84
2018-12-21T11:41:03.062Z,81.16
2018-12-21T11:43:35.271Z,81.65
2018-12-21T11:46:06.683Z,80.63
2018-12-21T11:48:36.966Z,79.60
2018-12-21T11:51:07.077Z,79.56
2018-12-21T11:53:37.304Z,78.84
2018-12-21T11:56:08.609Z,78.41
2018-12-21T11:58:38.936Z,78.82
2018-12-21T12:01:09.105Z,79.54
2018-12-21T12:03:44.950Z,78.94
2018-12-21T12:06:15.106Z,79.52
2018-12-21T12:08:45.819Z,79.77
2018-12-21T12:11:15.890Z,79.86
2018-12-21T12:13:46.061Z,79.83
2018-12-21T12:16:15.956Z,79.76
2018-12-21T12:18:46.209Z,80.16
2018-12-21T12:21:16.577Z,80.23
2018-12-21T12:23:47.192Z,80.55
2018-12-21T12:26:17.772Z,79.35
2018-12-21T12:28:47.928Z,80.35
2018-12-21T12:31:22.252Z,80.99
2018-12-21T12:33:52.277Z,80.68
2018-12-21T12:36:22.385Z,79.64
2018-12-21T12:38:52.764Z,78.64
2018-12-21T12:41:23.902Z,77.95
2018-12-21T12:43:54.593Z,76.82
2018-12-21T12:46:24.986Z,76.27
2018-12-21T12:48:55.220Z,78.25
2018-12-21T12:51:25.881Z,78.10
2018-12-21T12:53:56.779Z,78.49
2018-12-21T12:56:31.796Z,78.18
2018-12-21T12:59:01.873Z,79.94
2018-12-21T13:01:33.782Z,80.95
2018-12-21T13:04:08.165Z,80.68
2018-12-21T13:06:38.580Z,80.38
2018-12-21T13:09:09.715Z,80.23
2018-12-21T13:11:40.343Z,81.73
2018-12-21T13:14:10.785Z,82.09
2018-12-21T13:16:41.856Z,81.67
2018-12-21T13:19:11.955Z,81.87
2018-12-21T13:21:47.191Z,81.92
2018-12-21T13:24:17.974Z,81.37
2018-12-21T13:26:49.059Z,81.87
2018-12-21T13:29:20.416Z,82.54
2018-12-21T13:31:51.875Z,83.58
2018-12-21T13:34:23.271Z,83.19
2018-12-21T13:36:55.644Z,83.31
2018-12-21T13:39:25.994Z,83.54
2018-12-21T13:41:57.749Z,83.40
2018-12-21T13:44:27.795Z,83.18
2018-12-21T13:46:58.579Z,84.03
2018-12-21T13:49:29.146Z,84.52
2018-12-21T13:51:59.428Z,84.54
2018-12-21T13:54:29.643Z,85.62
2018-12-21T13:57:01.671Z,84.92
2018-12-21T13:59:39.339Z,85.14
2018-12-21T14:02:10.174Z,86.38
2018-12-21T14:04:40.913Z,87.00
2018-12-21T14:07:14.105Z,86.50
2018-12-21T14:09:44.883Z,86.74
2018-12-21T14:12:15.994Z,88.22
2018-12-21T14:14:46.250Z,88.94
2018-12-21T14:17:16.485Z,89.79
2018-12-21T14:19:46.989Z,89.56
2018-12-21T14:22:18.439Z,90.07
2018-12-21T14:24:50.065Z,89.04
2018-12-21T14:27:20.727Z,89.20
2018-12-21T14:29:51.843Z,89.30
2018-12-21T14:32:25.423Z,88.64
2018-12-21T14:34:55.924Z,89.23
2018-12-21T14:37:26.760Z,89.10
2018-12-21T14:39:58.323Z,87.45
2018-12-21T14:42:28.552Z,87.41
2018-12-21T14:45:00.504Z,87.69
2018-12-21T14:47:31.601Z,87.16
2018-12-21T14:50:02.404Z,87.68
2018-12-21T14:52:33.691Z,88.12
2018-12-21T14:55:05.150Z,87.41
2018-12-21T14:57:35.487Z,87.62
2018-12-21T15:00:07.762Z,87.18
2018-12-21T15:02:37.640Z,88.17
2018-12-21T15:05:11.444Z,89.28
2018-12-21T15:07:41.342Z,89.44
2018-12-21T15:10:11.832Z,88.80
2018-12-21T15:12:41.725Z,88.59
2018-12-21T15:15:11.535Z,89.08
2018-12-21T15:17:41.513Z,88.78
2018-12-21T15:20:12.249Z,88.98
2018-12-21T15:22:42.113Z,88.82
2018-12-21T15:25:12.184Z,87.92
2018-12-21T15:27:42.166Z,88.01
2018-12-21T15:30:13.045Z,87.92
2018-12-21T15:32:43.040Z,88.14
2018-12-21T15:35:13.358Z,88.42
2018-12-21T15:37:43.540Z,87.82
2018-12-21T15:40:13.617Z,88.83
2018-12-21T15:42:43.740Z,89.58
2018-12-21T15:45:14.128Z,88.40
2018-12-21T15:47:44.294Z,90.01
2018-12-21T15:50:14.472Z,91.32
2018-12-21T15:52:44.531Z,91.52
2018-12-21T15:55:14.293Z,92.08
2018-12-21T15:57:44.922Z,91.14
2018-12-21T16:00:16.855Z,91.91
2018-12-21T16:02:50.433Z,92.06
2018-12-21T16:05:20.739Z,92.50
2018-12-21T16:07:51.668Z,91.02
2018-12-21T16:10:22.691Z,89.70
2018-12-21T16:12:52.634Z,89.86
2018-12-21T16:15:22.774Z,90.86
2018-12-21T16:17:52.688Z,91.22
2018-12-21T16:20:22.900Z,92.18
2018-12-21T16:22:53.568Z,91.12
2018-12-21T16:25:23.817Z,92.84
2018-12-21T16:27:53.682Z,94.87
2018-12-21T16:30:23.756Z,95.58
2018-12-21T16:32:53.513Z,95.59
2018-12-21T16:35:23.661Z,95.53
2018-12-21T16:37:53.610Z,94.50
2018-12-21T16:40:23.840Z,93.41
2018-12-21T16:42:54.471Z,94.22
2018-12-21T16:45:24.796Z,95.12
2018-12-21T16:47:55.080Z,94.33
2018-12-21T16:50:25.231Z,93.76
2018-12-21T16:52:56.944Z,93.69
2018-12-21T16:55:27.478Z,92.42
2018-12-21T16:57:57.866Z,93.54
2018-12-21T17:00:29.166Z,93.02
2018-12-21T17:02:59.601Z,93.89
2018-12-21T17:05:29.900Z,93.71
2018-12-21T17:08:00.005Z,93.20
2018-12-21T17:10:30.503Z,92.83
2018-12-21T17:13:00.790Z,92.83
2018-12-21T17:15:30.963Z,93.35
2018-12-21T17:18:01.187Z,94.24
2018-12-21T17:20:31.522Z,94.21
2018-12-21T17:23:01.908Z,94.66
2018-12-21T17:25:32.424Z,94.29
2018-12-21T17:28:02.567Z,94.42
2018-12-21T17:30:33.585Z,95.13
2018-12-21T17:33:03.851Z,94.86
2018-12-21T17:35:34.178Z,92.92
2018-12-21T17:38:04.433Z,92.63
2018-12-21T17:40:34.777Z,92.81
2018-12-21T17:43:04.634Z,93.87
2018-12-21T17:45:35.601Z,94.47
2018-12-21T17:48:05.716Z,95.24
2018-12-21T17:50:35.625Z,95.67
2018-12-21T17:53:06.307Z,95.28
2018-12-21T17:55:36.417Z,96.02
2018-12-21T17:58:07.862Z,96.06
2018-12-21T18:00:38.730Z,96.84
2018-12-21T18:03:11.028Z,96.55
2018-12-21T18:05:41.381Z,95.71
2018-12-21T18:08:12.054Z,95.25
2018-12-21T18:10:42.169Z,95.07
2018-12-21T18:13:12.440Z,94.66
2018-12-21T18:15:42.694Z,95.05
2018-12-21T18:18:14.823Z,94.45
2018-12-21T18:20:44.709Z,94.77
2018-12-21T18:23:15.784Z,95.29
2018-12-21T18:25:46.212Z,95.05
2018-12-21T18:28:22.432Z,94.68
2018-12-21T18:30:55.979Z,94.71
2018-12-21T18:33:27.033Z,94.33
2018-12-21T18:35:57.317Z,94.09
2018-12-21T18:38:29.468Z,92.28
2018-12-21T18:41:00.721Z,91.94
2018-12-21T18:43:31.090Z,93.66
2018-12-21T18:46:01.579Z,95.22
2018-12-21T18:48:31.757Z,95.29
2018-12-21T18:51:01.684Z,95.26
2018-12-21T18:53:31.809Z,95.21
2018-12-21T18:56:02.473Z,95.71
2018-12-21T18:58:33.682Z,95.55
2018-12-21T19:01:03.917Z,94.31
2018-12-21T19:03:34.097Z,93.71
2018-12-21T19:06:04.888Z,92.96
2018-12-21T19:08:35.021Z,91.86
2018-12-21T19:11:05.182Z,90.93
2018-12-21T19:13:35.288Z,92.08
2018-12-21T19:16:06.619Z,90.01
2018-12-21T19:18:37.704Z,91.16
2018-12-21T19:21:07.943Z,90.06
2018-12-21T19:23:38.131Z,90.35
2018-12-21T19:26:08.972Z,90.95
2018-12-21T19:28:38.861Z,91.52
2018-12-21T19:31:11.813Z,92.58
2018-12-21T19:33:42.196Z,93.88
2018-12-21T19:36:13.386Z,94.14
2018-12-21T19:38:43.789Z,94.50
2018-12-21T19:41:14.003Z,95.82
2018-12-21T19:43:44.657Z,95.36
2018-12-21T19:46:15.765Z,95.45
2018-12-21T19:48:45.853Z,94.87
2018-12-21T19:51:16.860Z,94.63
2018-12-21T19:53:48.856Z,93.76
2018-12-21T19:56:39.312Z,92.30
2018-12-21T19:59:09.633Z,93.11
2018-12-21T20:01:39.800Z,92.69
2018-12-21T20:04:09.926Z,92.04
2018-12-21T20:06:40.192Z,92.36
2018-12-21T20:09:11.441Z,93.42
2018-12-21T20:11:41.559Z,94.12
2018-12-21T20:14:12.878Z,95.10
2018-12-21T20:16:43.389Z,96.42
2018-12-21T20:19:13.620Z,96.58
2018-12-21T20:21:43.820Z,96.66
2018-12-21T20:24:15.124Z,96.90
2018-12-21T20:26:49.457Z,97.27
2018-12-21T20:29:20.016Z,96.88
2018-12-21T20:31:50.139Z,96.90
2018-12-21T20:34:21.584Z,96.52
2018-12-21T20:36:52.003Z,96.29
2018-12-21T20:39:26.610Z,96.37
2018-12-21T20:41:57.701Z,96.85
2018-12-21T20:44:28.641Z,96.70
2018-12-21T20:47:02.513Z,95.13
2018-12-21T20:49:32.886Z,94.28
2018-12-21T20:52:03.107Z,94.74
2018-12-21T20:54:34.232Z,95.16
2018-12-21T20:57:06.755Z,95.54
2018-12-21T20:59:36.900Z,95.86
2018-12-21T21:02:07.124Z,95.87
2018-12-21T21:04:38.445Z,95.58
2018-12-21T21:07:09.654Z,95.44
2018-12-21T21:09:41.060Z,94.81
2018-12-21T21:12:12.004Z,94.93
2018-12-21T21:14:42.485Z,94.39
2018-12-21T21:17:12.653Z,94.29
2018-12-21T21:19:43.953Z,94.26
2018-12-21T21:22:14.042Z,93.18
2018-12-21T21:24:45.801Z,93.97
2018-12-21T21:35:01.913Z,42.35
2018-12-21T21:37:31.946Z,41.54
2018-12-21T21:40:02.107Z,45.98
2018-12-21T21:42:32.376Z,51.17
2018-12-21T21:45:02.756Z,54.81
2018-12-21T21:47:33.017Z,58.44
2018-12-21T21:50:03.334Z,61.31
2018-12-21T21:52:33.764Z,63.59
2018-12-21T21:55:03.618Z,64.44
2018-12-21T21:57:39.309Z,65.63
2018-12-21T22:00:07.142Z,68.01
2018-12-21T22:02:37.261Z,68.71
2018-12-21T22:05:08.379Z,69.45
2018-12-21T22:07:38.741Z,70.33
2018-12-21T22:10:10.926Z,71.22
2018-12-21T22:12:41.066Z,71.10
2018-12-21T22:15:13.060Z,72.01
2018-12-21T22:17:43.631Z,72.16
2018-12-21T22:20:13.915Z,72.76
2018-12-21T22:22:43.935Z,71.95
2018-12-21T22:25:13.924Z,72.93
2018-12-21T22:27:47.995Z,73.30
2018-12-21T22:30:16.392Z,73.01
2018-12-21T22:32:46.494Z,72.80
2018-12-21T22:35:17.145Z,72.11
2018-12-21T22:37:47.259Z,72.19
2018-12-21T22:40:17.200Z,72.41
2018-12-21T22:42:47.405Z,71.72
2018-12-21T22:45:19.950Z,71.08
2018-12-21T22:47:49.963Z,71.45
2018-12-21T22:50:19.927Z,71.50
2018-12-21T22:52:49.890Z,70.79
2018-12-21T22:55:21.729Z,71.02
2018-12-21T22:57:56.397Z,69.79
2018-12-21T23:00:28.748Z,70.71
2018-12-21T23:02:58.711Z,71.20
2018-12-21T23:05:29.341Z,71.20
2018-12-21T23:07:59.230Z,71.08
2018-12-21T23:10:29.337Z,71.35
2018-12-21T23:12:59.587Z,71.97
2018-12-21T23:15:29.817Z,71.13
2018-12-21T23:18:01.245Z,72.58
2018-12-21T23:20:31.107Z,73.13
2018-12-21T23:23:00.925Z,72.60
2018-12-21T23:25:31.177Z,71.86
2018-12-21T23:28:04.941Z,70.82
2018-12-21T23:30:33.451Z,70.45
2018-12-21T23:33:03.561Z,70.17
2018-12-21T23:35:33.241Z,69.79
2018-12-21T23:38:03.450Z,69.30
2018-12-21T23:40:34.308Z,70.72
2018-12-21T23:43:04.095Z,72.22
2018-12-21T23:45:33.834Z,72.22
2018-12-21T23:48:04.014Z,73.02
2018-12-21T23:50:34.071Z,73.40
2018-12-21T23:53:03.983Z,74.14
2018-12-21T23:55:33.769Z,73.26
2018-12-21T23:58:03.775Z,74.59
